Time;durP1;ratioP1;P1;durP2;ratioP2;P2;SDS_P1;SDS_P2;PMS_P1;PMS_P2;Temp;Humidity;BMP_temperature;BMP_pressure;BME280_temperature;BME280_humidity;BME280_pressure;Samples;Min_cycle;Max_cycle;Signal;HPM_P1;HPM_P2
2023/02/22 00:04:10;;;;;;;64.77;31.20;;;5.90;99.90;;;;;;2615522;54;20523;-73
2023/02/22 00:09:59;;;;;;;78.07;35.80;;;6.00;99.90;;;;;;2616135;54;20406;-73
2023/02/22 00:15:48;;;;;;;86.53;34.77;;;6.00;99.90;;;;;;2616265;39;20802;-71
2023/02/22 00:21:36;;;;;;;89.30;35.73;;;6.10;99.90;;;;;;2615853;54;20454;-72
2023/02/22 00:27:24;;;;;;;88.43;37.47;;;6.10;99.90;;;;;;2615599;54;20153;-71
2023/02/22 00:30:34;;;;;;;95.23;36.90;;;6.10;99.90;;;;;;2616124;54;20917;-72
2023/02/22 00:33:00;;;;;;;84.60;37.40;;;6.10;99.90;;;;;;2615708;54;20135;-73
2023/02/22 00:38:47;;;;;;;90.03;34.67;;;6.20;99.90;;;;;;2615690;54;20379;-72
2023/02/22 00:44:35;;;;;;;89.77;35.97;;;6.30;99.90;;;;;;2615647;54;20670;-72
2023/02/22 00:50:26;;;;;;;113.20;36.33;;;6.30;99.90;;;;;;2616107;39;20423;-73
2023/02/22 00:56:14;;;;;;;97.00;36.63;;;6.30;99.90;;;;;;2615835;54;20383;-73
2023/02/22 01:02:01;;;;;;;137.53;40.40;;;6.30;99.90;;;;;;2615894;54;20649;-72
2023/02/22 01:07:49;;;;;;;103.83;36.10;;;6.40;99.90;;;;;;2615835;54;20154;-72
2023/02/22 01:13:37;;;;;;;152.83;42.40;;;6.30;99.90;;;;;;2615820;54;20524;-72
2023/02/22 01:19:25;;;;;;;187.93;44.63;;;6.30;99.90;;;;;;2615781;54;20166;-73
2023/02/22 01:25:17;;;;;;;103.30;35.90;;;6.30;99.90;;;;;;2615947;54;20134;-73
2023/02/22 01:35:07;;;;;;;194.27;37.23;;;6.20;99.90;;;;;;2615729;54;20375;-73
2023/02/22 01:40:55;;;;;;;123.80;33.80;;;6.10;99.90;;;;;;2615709;54;20359;-74
2023/02/22 01:46:42;;;;;;;126.63;33.80;;;6.20;99.90;;;;;;2615962;54;20127;-73
2023/02/22 01:52:30;;;;;;;122.63;30.20;;;6.10;99.90;;;;;;2615634;54;20516;-72
2023/02/22 01:58:19;;;;;;;101.20;30.43;;;6.00;99.90;;;;;;2615700;54;20123;-72
2023/02/22 02:10:35;;;;;;;63.67;24.07;;;5.90;99.90;;;;;;2615139;54;20351;-71
2023/02/22 02:16:29;;;;;;;219.60;40.43;;;5.90;99.90;;;;;;2615016;54;20411;-71
2023/02/22 02:18:54;;;;;;;124.73;31.27;;;5.90;99.90;;;;;;2609878;54;20479;-76
2023/02/22 02:27:22;;;;;;;141.80;31.80;;;5.90;99.90;;;;;;2614780;54;20395;-70
2023/02/22 02:53:24;;;;;;;358.97;48.07;;;6.00;99.90;;;;;;2614950;54;20404;-70
2023/02/22 02:59:36;;;;;;;413.30;62.97;;;6.00;99.90;;;;;;2614594;54;20364;-70
2023/02/22 03:05:42;;;;;;;428.80;66.73;;;6.10;99.90;;;;;;2614873;54;20431;-71
2023/02/22 03:22:17;;;;;;;239.43;43.30;;;6.10;99.90;;;;;;2614377;54;20535;-71
2023/02/22 03:28:13;;;;;;;148.83;32.20;;;6.00;99.90;;;;;;2614489;54;20919;-69
2023/02/22 03:34:07;;;;;;;361.87;51.93;;;6.10;99.90;;;;;;2614746;54;20376;-70
2023/02/22 03:39:57;;;;;;;207.97;44.17;;;6.00;99.90;;;;;;2614275;54;20379;-70
2023/02/22 03:45:47;;;;;;;238.30;44.83;;;6.00;99.90;;;;;;2614898;54;20476;-69
2023/02/22 03:51:35;;;;;;;163.30;40.07;;;6.00;99.90;;;;;;2614512;54;20395;-75
2023/02/22 03:57:31;;;;;;;208.20;38.37;;;5.90;99.90;;;;;;2615112;54;20842;-70
2023/02/22 04:03:20;;;;;;;172.50;37.80;;;5.90;99.90;;;;;;2614535;54;20415;-69
2023/02/22 04:09:08;;;;;;;104.03;24.13;;;5.70;99.90;;;;;;2614881;39;20746;-69
2023/02/22 04:14:56;;;;;;;129.30;29.70;;;5.60;99.90;;;;;;2614385;54;20661;-69
2023/02/22 04:20:43;;;;;;;68.30;21.20;;;5.50;99.90;;;;;;2614582;39;20524;-70
2023/02/22 04:30:43;;;;;;;37.00;14.80;;;5.40;99.90;;;;;;2614596;54;20411;-70
2023/02/22 04:36:30;;;;;;;157.63;26.43;;;5.30;99.90;;;;;;2614356;54;20407;-70
2023/02/22 04:42:18;;;;;;;109.07;23.03;;;5.10;99.90;;;;;;2614246;54;20130;-69
2023/02/22 04:48:05;;;;;;;126.87;25.70;;;5.00;99.90;;;;;;2614226;54;20640;-69
2023/02/22 04:53:53;;;;;;;76.83;18.67;;;4.90;99.90;;;;;;2615242;54;20130;-69
2023/02/22 04:59:41;;;;;;;244.37;32.37;;;4.90;99.90;;;;;;2615017;54;20145;-70
2023/02/22 05:05:29;;;;;;;146.07;27.63;;;4.80;99.90;;;;;;2615175;54;20117;-70
2023/02/22 05:11:16;;;;;;;142.87;26.53;;;4.90;99.90;;;;;;2615276;54;20142;-70
2023/02/22 05:17:04;;;;;;;178.40;25.23;;;4.80;99.90;;;;;;2615106;54;20139;-70
2023/02/22 05:22:54;;;;;;;160.07;27.00;;;4.80;99.90;;;;;;2614982;54;21372;-70
2023/02/22 05:26:11;;;;;;;187.00;36.20;;;4.80;99.90;;;;;;2615023;54;20394;-70
2023/02/22 05:28:36;;;;;;;168.67;30.80;;;4.80;99.90;;;;;;2614711;54;20431;-69
2023/02/22 05:31:40;;;;;;;208.20;32.77;;;4.70;99.90;;;;;;2614306;47;20507;-69
2023/02/22 05:34:06;;;;;;;227.73;31.80;;;4.80;99.90;;;;;;2614938;54;20138;-69
2023/02/22 05:39:54;;;;;;;97.80;23.80;;;4.70;99.90;;;;;;2615060;54;20134;-70
2023/02/22 05:45:41;;;;;;;89.90;20.40;;;4.60;99.90;;;;;;2615011;54;20430;-71
2023/02/22 05:51:29;;;;;;;83.77;19.90;;;4.50;99.90;;;;;;2614947;54;20138;-70
2023/02/22 05:57:17;;;;;;;102.17;23.00;;;4.40;99.90;;;;;;2614798;54;20122;-69
2023/02/22 06:03:08;;;;;;;156.57;27.93;;;4.40;99.90;;;;;;2615176;39;20531;-69
2023/02/22 06:08:55;;;;;;;139.23;21.70;;;4.50;99.90;;;;;;2615149;54;20363;-70
2023/02/22 06:14:46;;;;;;;116.33;21.87;;;4.50;99.90;;;;;;2615003;54;20732;-70
2023/02/22 06:20:34;;;;;;;98.07;22.40;;;4.40;99.90;;;;;;2614610;54;20920;-69
2023/02/22 06:30:43;;;;;;;150.27;26.77;;;4.30;99.90;;;;;;2614940;54;20423;-69
2023/02/22 06:36:30;;;;;;;120.70;23.03;;;4.30;99.90;;;;;;2614968;54;20400;-69
2023/02/22 06:42:18;;;;;;;86.20;20.30;;;4.30;99.90;;;;;;2614837;54;20126;-68
2023/02/22 06:48:06;;;;;;;156.07;28.00;;;4.30;99.90;;;;;;2614845;54;20122;-69
2023/02/22 06:53:54;;;;;;;165.27;26.13;;;4.30;99.90;;;;;;2614790;54;20117;-70
2023/02/22 06:59:42;;;;;;;82.27;17.00;;;4.20;99.90;;;;;;2614749;54;20119;-70
2023/02/22 07:05:30;;;;;;;91.37;19.07;;;4.40;99.90;;;;;;2614760;54;20398;-69
2023/02/22 07:11:17;;;;;;;140.93;25.63;;;4.50;99.90;;;;;;2614770;54;20139;-69
2023/02/22 07:17:06;;;;;;;88.70;22.07;;;4.60;99.90;;;;;;2614652;54;20122;-69
2023/02/22 07:22:54;;;;;;;78.87;17.37;;;4.70;99.90;;;;;;2614594;54;20387;-69
2023/02/22 07:26:12;;;;;;;55.90;17.57;;;4.80;99.90;;;;;;2614545;54;20508;-69
2023/02/22 07:28:38;;;;;;;52.47;17.63;;;4.80;99.90;;;;;;2614578;54;20209;-68
2023/02/22 07:34:25;;;;;;;56.53;21.47;;;5.00;99.90;;;;;;2614605;54;20126;-69
2023/02/22 07:40:14;;;;;;;54.37;23.20;;;5.00;99.90;;;;;;2614722;46;20149;-68
2023/02/22 07:46:02;;;;;;;77.50;25.40;;;5.10;99.90;;;;;;2615060;39;20782;-69
2023/02/22 07:51:49;;;;;;;65.00;23.17;;;5.10;99.90;;;;;;2614677;46;20126;-69
2023/02/22 07:57:37;;;;;;;83.77;23.17;;;5.30;99.90;;;;;;2614506;54;20123;-69
2023/02/22 08:03:26;;;;;;;59.03;23.50;;;5.50;99.90;;;;;;2614745;54;20127;-70
2023/02/22 08:09:13;;;;;;;27.50;19.57;;;5.70;99.90;;;;;;2614639;54;20347;-69
2023/02/22 08:15:03;;;;;;;49.93;20.57;;;5.90;99.90;;;;;;2614631;54;20150;-68
2023/02/22 08:20:52;;;;;;;31.20;18.83;;;6.00;99.90;;;;;;2614315;54;20484;-70
2023/02/22 08:30:42;;;;;;;67.00;25.17;;;6.30;99.90;;;;;;2615341;54;20415;-69
2023/02/22 08:36:31;;;;;;;57.83;20.47;;;6.10;99.90;;;;;;2615220;54;20416;-70
2023/02/22 08:42:19;;;;;;;26.40;18.77;;;6.30;99.90;;;;;;2615025;54;20375;-69
2023/02/22 08:48:07;;;;;;;43.23;19.13;;;6.70;99.90;;;;;;2615231;46;20146;-70
2023/02/22 08:53:55;;;;;;;38.30;20.33;;;6.90;99.90;;;;;;2615106;54;20139;-69
2023/02/22 08:59:42;;;;;;;21.47;18.30;;;7.10;99.90;;;;;;2615074;54;20235;-69
2023/02/22 09:05:31;;;;;;;25.57;18.50;;;7.60;99.90;;;;;;2615039;54;20126;-70
2023/02/22 09:11:19;;;;;;;19.30;15.87;;;8.90;99.90;;;;;;2614867;54;20382;-69
2023/02/22 09:17:06;;;;;;;18.70;15.67;;;10.00;99.90;;;;;;2615098;54;20158;-69
2023/02/22 09:22:55;;;;;;;20.70;17.70;;;9.20;99.90;;;;;;2614622;54;20139;-70
2023/02/22 09:26:11;;;;;;;17.67;15.77;;;9.90;99.90;;;;;;2614307;47;20407;-70
2023/02/22 09:28:36;;;;;;;16.70;15.00;;;10.10;99.90;;;;;;2614867;54;20566;-69
2023/02/22 09:34:28;;;;;;;17.17;15.40;;;10.70;99.90;;;;;;2614855;54;20191;-70
2023/02/22 09:40:23;;;;;;;22.10;16.63;;;11.70;99.90;;;;;;2615304;39;20761;-69
2023/02/22 09:52:40;;;;;;;19.50;17.90;;;12.40;99.90;;;;;;2615039;54;20483;-70
2023/02/22 09:58:35;;;;;;;19.97;18.17;;;12.40;99.90;;;;;;2614725;46;20414;-70
2023/02/22 10:10:52;;;;;;;20.40;17.53;;;13.40;99.90;;;;;;2614838;54;20388;-70
2023/02/22 10:39:32;;;;;;;23.63;21.63;;;13.90;99.90;;;;;;2614762;54;20438;-70
2023/02/22 10:45:25;;;;;;;26.20;23.50;;;14.50;99.90;;;;;;2614751;54;20412;-69
2023/02/22 10:51:13;;;;;;;23.83;21.47;;;15.10;99.90;;;;;;2614534;54;20395;-70
2023/02/22 10:57:02;;;;;;;22.57;20.53;;;16.70;78.30;;;;;;2614637;54;20122;-70
2023/02/22 11:02:54;;;;;;;22.23;20.43;;;16.90;48.60;;;;;;2614620;54;20403;-70
2023/02/22 11:08:42;;;;;;;23.67;21.57;;;17.50;41.80;;;;;;2614495;54;20980;-71
2023/02/22 11:14:30;;;;;;;22.20;18.90;;;18.20;28.10;;;;;;2614555;54;20363;-70
2023/02/22 11:36:55;;;;;;;18.43;17.07;;;19.70;4.60;;;;;;2613155;54;20395;-70
2023/02/22 11:42:42;;;;;;;19.33;17.53;;;20.20;1.00;;;;;;2612967;54;20408;-70
2023/02/22 11:48:33;;;;;;;16.03;14.70;;;19.70;1.40;;;;;;2612837;54;20131;-71
2023/02/22 11:54:39;;;;;;;16.87;15.20;;;19.40;1.00;;;;;;2613663;39;20762;-70
2023/02/22 12:59:35;;;;;;;14.50;13.50;;;20.10;1.00;;;;;;2612650;54;20904;-70
2023/02/22 13:05:23;;;;;;;14.97;13.43;;;19.80;1.00;;;;;;2613075;39;20932;-68
2023/02/22 13:11:27;;;;;;;15.07;14.00;;;19.50;1.00;;;;;;2612713;54;20380;-70
2023/02/22 13:17:26;;;;;;;14.63;13.60;;;19.70;1.00;;;;;;2613966;54;20917;-70
2023/02/22 13:39:40;;;;;;;16.37;14.80;;;19.30;1.00;;;;;;2615472;39;20762;-69
2023/02/22 13:46:03;;;;;;;15.67;14.47;;;18.60;1.00;;;;;;2615034;54;20363;-69
2023/02/22 13:51:55;;;;;;;14.73;13.43;;;19.20;1.00;;;;;;2614834;54;20382;-69
2023/02/22 13:57:47;;;;;;;17.07;15.47;;;17.70;1.00;;;;;;2615199;54;20398;-69
2023/02/22 14:03:39;;;;;;;16.77;15.70;;;18.40;1.00;;;;;;2614982;54;20379;-69
2023/02/22 14:09:44;;;;;;;14.73;13.70;;;18.00;1.00;;;;;;2615273;54;20380;-70
2023/02/22 14:15:31;;;;;;;16.27;15.10;;;17.10;1.00;;;;;;2614961;54;20395;-69
2023/02/22 14:21:21;;;;;;;15.83;14.63;;;16.70;1.00;;;;;;2614657;54;20123;-69
2023/02/22 14:27:09;;;;;;;17.33;15.83;;;16.70;1.00;;;;;;2614652;54;21203;-70
2023/02/22 14:36:25;;;;;;;16.23;15.03;;;17.30;1.00;;;;;;2614745;54;20447;-70
2023/02/22 14:48:41;;;;;;;15.73;14.60;;;17.30;1.00;;;;;;2614542;54;20403;-70
2023/02/22 15:11:48;;;;;;;17.93;16.53;;;15.90;2.50;;;;;;2612922;54;20446;-69
2023/02/22 15:17:35;;;;;;;17.57;16.27;;;15.70;3.90;;;;;;2613115;54;20964;-70
2023/02/22 15:23:29;;;;;;;19.40;17.87;;;15.60;5.30;;;;;;2612958;54;20126;-69
2023/02/22 15:29:24;;;;;;;17.37;16.07;;;15.40;8.60;;;;;;2613344;54;20432;-69
2023/02/22 15:38:33;;;;;;;18.73;17.33;;;15.30;10.40;;;;;;2614746;54;20423;-70
2023/02/22 15:44:21;;;;;;;19.40;17.60;;;15.40;12.30;;;;;;2614458;54;20122;-70
2023/02/22 15:50:16;;;;;;;20.60;19.00;;;15.20;14.70;;;;;;2614456;54;20206;-70
2023/02/22 15:56:10;;;;;;;18.70;17.40;;;14.80;18.30;;;;;;2614376;54;20424;-70
2023/02/22 16:01:58;;;;;;;20.13;18.63;;;14.60;20.50;;;;;;2614398;54;20954;-70
2023/02/22 16:07:49;;;;;;;21.17;19.40;;;14.50;25.80;;;;;;2614607;54;20376;-70
2023/02/22 16:13:40;;;;;;;20.90;18.90;;;14.30;31.70;;;;;;2614473;54;20363;-70
2023/02/22 16:32:23;;;;;;;21.27;19.57;;;13.90;48.90;;;;;;2614423;54;20565;-69
2023/02/22 16:41:33;;;;;;;20.00;18.10;;;13.80;63.30;;;;;;2614168;54;20375;-70
2023/02/22 16:47:21;;;;;;;22.90;20.77;;;13.70;74.70;;;;;;2614848;54;20127;-70
2023/02/22 16:53:09;;;;;;;20.50;18.30;;;13.60;80.60;;;;;;2614822;54;20111;-69
2023/02/22 16:59:01;;;;;;;20.90;19.00;;;13.40;91.40;;;;;;2614956;54;20363;-70
2023/02/22 17:04:49;;;;;;;20.63;18.67;;;13.20;95.70;;;;;;2615275;54;20354;-70
2023/02/22 17:10:37;;;;;;;23.30;21.07;;;13.20;99.10;;;;;;2614731;54;20648;-70
2023/02/22 17:16:24;;;;;;;23.80;21.37;;;13.10;99.90;;;;;;2614773;54;20364;-69
2023/02/22 17:22:18;;;;;;;23.40;21.20;;;12.90;99.90;;;;;;2614943;54;20159;-70
2023/02/22 17:25:20;;;;;;;22.33;20.07;;;12.90;99.90;;;;;;2614966;54;20412;-69
2023/02/22 17:27:46;;;;;;;20.97;18.87;;;13.00;99.90;;;;;;2614903;46;20469;-69
2023/02/22 17:33:36;;;;;;;22.43;19.17;;;12.80;99.90;;;;;;2614827;54;20667;-69
2023/02/22 17:39:41;;;;;;;23.03;19.00;;;12.80;99.90;;;;;;2613133;46;20400;-70
2023/02/22 17:45:29;;;;;;;21.80;19.70;;;12.80;99.90;;;;;;2613646;54;20150;-69
2023/02/22 17:51:16;;;;;;;22.67;20.53;;;12.60;99.90;;;;;;2613312;54;20172;-70
2023/02/22 17:57:03;;;;;;;28.80;21.00;;;12.60;99.90;;;;;;2613386;54;20118;-70
2023/02/22 18:02:50;;;;;;;24.23;21.63;;;12.40;99.90;;;;;;2613549;54;20228;-69
2023/02/22 18:08:37;;;;;;;25.70;20.17;;;12.50;99.90;;;;;;2613541;54;21041;-70
2023/02/22 18:14:25;;;;;;;23.97;21.57;;;12.30;99.90;;;;;;2614463;39;20230;-74
2023/02/22 18:20:14;;;;;;;25.43;22.33;;;12.20;99.90;;;;;;2614776;54;20652;-73
2023/02/22 18:26:03;;;;;;;24.53;21.87;;;12.10;99.90;;;;;;2614739;54;20347;-73
2023/02/22 18:31:52;;;;;;;23.47;20.83;;;12.10;99.90;;;;;;2614682;54;20399;-74
2023/02/22 18:47:56;;;;;;;22.50;20.20;;;11.80;99.90;;;;;;2613084;54;20386;-74
2023/02/22 18:53:45;;;;;;;22.67;20.40;;;11.70;99.90;;;;;;2613600;39;20727;-73
2023/02/22 18:59:32;;;;;;;25.27;22.57;;;11.70;99.90;;;;;;2613071;54;20379;-73
2023/02/22 19:05:20;;;;;;;32.83;23.20;;;11.60;99.90;;;;;;2613050;54;20559;-74
2023/02/22 19:11:11;;;;;;;29.10;25.03;;;11.50;99.90;;;;;;2613142;54;20725;-73
2023/02/22 19:17:00;;;;;;;29.03;25.53;;;11.40;99.90;;;;;;2613175;39;20833;-74
2023/02/22 19:22:48;;;;;;;36.37;28.50;;;11.30;99.90;;;;;;2614614;54;20980;-74
2023/02/22 19:28:35;;;;;;;36.43;28.30;;;11.10;99.90;;;;;;2615001;39;20498;-73
2023/02/22 19:34:25;;;;;;;38.63;30.30;;;11.00;99.90;;;;;;2614683;54;20157;-73
2023/02/22 19:44:25;;;;;;;36.43;30.10;;;10.90;99.90;;;;;;2613001;54;20495;-74
2023/02/22 19:50:15;;;;;;;42.70;32.00;;;10.90;99.90;;;;;;2612822;54;20398;-73
2023/02/22 19:56:10;;;;;;;38.13;30.23;;;10.80;99.90;;;;;;2612920;54;20475;-73
2023/02/22 20:01:57;;;;;;;40.20;31.13;;;10.70;99.90;;;;;;2612773;54;20411;-73
2023/02/22 20:07:44;;;;;;;40.90;32.13;;;10.70;99.90;;;;;;2612917;54;20278;-73
2023/02/22 20:13:31;;;;;;;44.87;31.60;;;10.50;99.90;;;;;;2612927;39;20936;-73
2023/02/22 20:19:21;;;;;;;38.10;31.20;;;10.50;99.90;;;;;;2614060;54;20148;-73
2023/02/22 20:25:09;;;;;;;41.77;33.27;;;10.30;99.90;;;;;;2614994;54;20355;-74
2023/02/22 20:30:57;;;;;;;39.30;31.00;;;10.30;99.90;;;;;;2614773;54;20371;-73
2023/02/22 20:36:44;;;;;;;41.70;30.83;;;10.20;99.90;;;;;;2614938;54;20153;-74
2023/02/22 20:42:32;;;;;;;35.70;31.23;;;10.10;99.90;;;;;;2615342;39;20529;-73
2023/02/22 20:48:20;;;;;;;37.13;32.07;;;10.10;99.90;;;;;;2614843;54;20545;-72
2023/02/22 20:54:10;;;;;;;38.93;31.53;;;10.10;99.90;;;;;;2614961;54;20151;-75
2023/02/22 20:59:59;;;;;;;42.47;34.90;;;10.00;99.90;;;;;;2614974;54;20916;-73
2023/02/22 21:05:47;;;;;;;44.67;33.70;;;10.00;99.90;;;;;;2615174;54;20422;-73
2023/02/22 21:11:35;;;;;;;41.03;31.97;;;10.10;99.90;;;;;;2615286;54;20407;-74
2023/02/22 21:17:27;;;;;;;41.67;34.50;;;10.10;99.90;;;;;;2615157;54;20548;-74
2023/02/22 21:23:15;;;;;;;38.93;32.67;;;10.10;99.90;;;;;;2615030;54;20394;-74
2023/02/22 21:29:05;;;;;;;43.63;33.00;;;10.00;99.90;;;;;;2614562;54;20411;-73
2023/02/22 21:34:53;;;;;;;42.30;33.33;;;10.10;99.90;;;;;;2614801;54;20423;-74
2023/02/22 21:40:45;;;;;;;44.17;32.30;;;10.00;99.90;;;;;;2614711;39;20407;-74
2023/02/22 21:46:32;;;;;;;43.67;33.57;;;9.90;99.90;;;;;;2614888;54;20379;-74
2023/02/22 21:52:20;;;;;;;44.93;34.80;;;9.90;99.90;;;;;;2614787;54;20130;-74
2023/02/22 21:58:08;;;;;;;45.57;36.23;;;9.90;99.90;;;;;;2615055;54;20127;-74
2023/02/22 22:03:58;;;;;;;40.80;33.37;;;9.90;99.90;;;;;;2614945;54;20130;-73
2023/02/22 22:09:55;;;;;;;48.97;36.90;;;9.90;99.90;;;;;;2614703;54;20383;-74
2023/02/22 22:15:42;;;;;;;49.10;37.50;;;9.80;99.90;;;;;;2614693;54;20375;-73
2023/02/22 22:21:32;;;;;;;55.20;39.20;;;9.80;99.90;;;;;;2614690;54;20262;-74
2023/02/22 22:27:20;;;;;;;47.57;38.03;;;9.80;99.90;;;;;;2614811;54;20440;-73
2023/02/22 22:33:10;;;;;;;52.90;37.37;;;9.80;99.90;;;;;;2614758;54;20383;-73
2023/02/22 22:38:58;;;;;;;53.37;41.40;;;9.70;99.90;;;;;;2614176;54;20466;-73
2023/02/22 22:44:49;;;;;;;56.10;43.60;;;9.70;99.90;;;;;;2614635;54;20131;-74
2023/02/22 22:50:36;;;;;;;56.60;42.50;;;9.60;99.90;;;;;;2614668;54;20379;-73
2023/02/22 22:56:28;;;;;;;62.77;45.77;;;9.50;99.90;;;;;;2614715;54;20163;-74
2023/02/22 23:02:19;;;;;;;57.73;42.47;;;9.50;99.90;;;;;;2614776;39;20790;-73
2023/02/22 23:08:09;;;;;;;59.93;43.47;;;9.40;99.90;;;;;;2615077;39;20446;-73
2023/02/22 23:13:59;;;;;;;59.33;43.43;;;9.40;99.90;;;;;;2614969;39;20840;-72
2023/02/22 23:19:46;;;;;;;67.13;47.40;;;9.40;99.90;;;;;;2614492;54;20368;-73
2023/02/22 23:25:37;;;;;;;71.97;46.83;;;9.50;99.90;;;;;;2614280;54;20178;-74
2023/02/22 23:31:28;;;;;;;70.13;48.67;;;9.50;99.90;;;;;;2615269;31;21088;-73
2023/02/22 23:47:35;;;;;;;76.23;51.47;;;9.40;99.90;;;;;;2613419;39;20758;-73
2023/02/22 23:53:24;;;;;;;91.20;52.57;;;9.40;99.90;;;;;;2613271;54;20230;-73
2023/02/22 23:59:13;;;;;;;82.87;56.03;;;9.30;99.90;;;;;;2613099;46;20483;-74
